sensor_id;sensor_type;location;lat;lon;timestamp;pressure;altitude;pressure_sealevel;temperature;humidity
64298;BME280;50639;53.270;7.956;2023-01-25T00:02:02;104747.44;;;2.24;100.00
64298;BME280;50639;53.270;7.956;2023-01-25T00:04:29;104608.91;;;2.16;100.00
64298;BME280;50639;53.270;7.956;2023-01-25T00:06:55;104600.47;;;2.08;100.00
64298;BME280;50639;53.270;7.956;2023-01-25T00:09:21;104467.56;;;1.95;100.00
64298;BME280;50639;53.270;7.956;2023-01-25T00:11:47;104731.34;;;2.10;100.00
64298;BME280;50639;53.270;7.956;2023-01-25T00:14:13;104944.59;;;2.29;100.00
64298;BME280;50639;53.270;7.956;2023-01-25T00:16:40;104902.91;;;2.31;100.00
64298;BME280;50639;53.270;7.956;2023-01-25T00:19:06;104792.56;;;2.24;100.00
64298;BME280;50639;53.270;7.956;2023-01-25T00:21:32;104836.81;;;2.25;100.00
64298;BME280;50639;53.270;7.956;2023-01-25T00:23:59;104587.28;;;2.06;100.00
64298;BME280;50639;53.270;7.956;2023-01-25T00:26:25;104618.78;;;1.97;100.00
64298;BME280;50639;53.270;7.956;2023-01-25T00:28:52;104786.31;;;2.08;100.00
64298;BME280;50639;53.270;7.956;2023-01-25T00:36:55;104960.47;;;2.12;100.00
64298;BME280;50639;53.270;7.956;2023-01-25T00:39:21;104927.53;;;2.16;100.00
64298;BME280;50639;53.270;7.956;2023-01-25T00:41:47;104709.53;;;2.03;100.00
64298;BME280;50639;53.270;7.956;2023-01-25T00:44:13;104768.81;;;2.04;100.00
64298;BME280;50639;53.270;7.956;2023-01-25T00:46:38;104766.56;;;1.96;100.00
64298;BME280;50639;53.270;7.956;2023-01-25T00:49:05;104544.47;;;1.80;100.00
64298;BME280;50639;53.270;7.956;2023-01-25T00:51:30;104833.69;;;1.98;100.00
64298;BME280;50639;53.270;7.956;2023-01-25T00:53:56;104947.63;;;2.03;100.00
64298;BME280;50639;53.270;7.956;2023-01-25T00:56:21;104905.00;;;2.06;100.00
64298;BME280;50639;53.270;7.956;2023-01-25T00:58:47;104981.06;;;2.07;100.00
64298;BME280;50639;53.270;7.956;2023-01-25T01:01:15;104917.78;;;1.98;100.00
64298;BME280;50639;53.270;7.956;2023-01-25T01:03:41;104955.66;;;2.01;100.00
64298;BME280;50639;53.270;7.956;2023-01-25T01:06:08;105142.81;;;2.11;100.00
64298;BME280;50639;53.270;7.956;2023-01-25T01:08:37;105121.56;;;2.11;100.00
64298;BME280;50639;53.270;7.956;2023-01-25T01:11:06;105209.94;;;2.15;100.00
64298;BME280;50639;53.270;7.956;2023-01-25T01:13:33;104886.91;;;1.95;100.00
64298;BME280;50639;53.270;7.956;2023-01-25T01:16:00;104975.25;;;1.99;100.00
64298;BME280;50639;53.270;7.956;2023-01-25T01:18:37;105111.22;;;2.05;100.00
64298;BME280;50639;53.270;7.956;2023-01-25T01:21:03;104961.13;;;1.98;100.00
64298;BME280;50639;53.270;7.956;2023-01-25T01:23:29;104966.50;;;1.97;100.00
64298;BME280;50639;53.270;7.956;2023-01-25T01:25:55;105158.16;;;2.05;100.00
64298;BME280;50639;53.270;7.956;2023-01-25T01:28:20;104762.84;;;1.82;100.00
64298;BME280;50639;53.270;7.956;2023-01-25T01:30:46;104864.91;;;1.75;100.00
64298;BME280;50639;53.270;7.956;2023-01-25T01:33:11;104882.63;;;1.74;100.00
64298;BME280;50639;53.270;7.956;2023-01-25T01:35:37;104674.75;;;1.56;100.00
64298;BME280;50639;53.270;7.956;2023-01-25T01:38:02;104679.44;;;1.51;100.00
64298;BME280;50639;53.270;7.956;2023-01-25T01:40:28;104839.19;;;1.58;100.00
64298;BME280;50639;53.270;7.956;2023-01-25T01:43:05;104619.53;;;1.47;100.00
64298;BME280;50639;53.270;7.956;2023-01-25T01:48:30;105228.16;;;1.82;100.00
64298;BME280;50639;53.270;7.956;2023-01-25T01:54:07;104913.47;;;1.58;100.00
64298;BME280;50639;53.270;7.956;2023-01-25T01:56:39;104801.47;;;1.51;100.00
64298;BME280;50639;53.270;7.956;2023-01-25T01:59:06;105178.97;;;1.74;100.00
64298;BME280;50639;53.270;7.956;2023-01-25T02:01:32;105410.03;;;1.91;100.00
64298;BME280;50639;53.270;7.956;2023-01-25T02:03:59;105187.31;;;1.85;100.00
64298;BME280;50639;53.270;7.956;2023-01-25T02:06:38;105318.94;;;1.90;100.00
64298;BME280;50639;53.270;7.956;2023-01-25T02:09:06;105193.50;;;1.85;100.00
64298;BME280;50639;53.270;7.956;2023-01-25T02:11:32;105216.53;;;1.85;100.00
64298;BME280;50639;53.270;7.956;2023-01-25T02:13:59;105074.25;;;1.81;100.00
64298;BME280;50639;53.270;7.956;2023-01-25T02:16:27;105375.50;;;1.92;100.00
64298;BME280;50639;53.270;7.956;2023-01-25T02:18:54;105213.69;;;1.89;100.00
64298;BME280;50639;53.270;7.956;2023-01-25T02:21:23;105034.72;;;1.75;100.00
64298;BME280;50639;53.270;7.956;2023-01-25T02:23:53;105037.38;;;1.75;100.00
64298;BME280;50639;53.270;7.956;2023-01-25T02:26:21;105140.59;;;1.81;100.00
64298;BME280;50639;53.270;7.956;2023-01-25T02:28:58;105053.25;;;1.76;100.00
64298;BME280;50639;53.270;7.956;2023-01-25T02:31:24;105132.66;;;1.81;100.00
64298;BME280;50639;53.270;7.956;2023-01-25T02:33:50;104889.22;;;1.65;100.00
64298;BME280;50639;53.270;7.956;2023-01-25T02:36:20;105010.13;;;1.71;100.00
64298;BME280;50639;53.270;7.956;2023-01-25T02:39:13;104955.41;;;1.68;100.00
64298;BME280;50639;53.270;7.956;2023-01-25T02:41:42;104820.25;;;1.65;100.00
64298;BME280;50639;53.270;7.956;2023-01-25T02:44:14;104884.03;;;1.62;100.00
64298;BME280;50639;53.270;7.956;2023-01-25T02:46:41;104982.72;;;1.70;100.00
64298;BME280;50639;53.270;7.956;2023-01-25T02:49:09;105278.44;;;1.85;100.00
64298;BME280;50639;53.270;7.956;2023-01-25T02:51:38;105166.88;;;1.87;100.00
64298;BME280;50639;53.270;7.956;2023-01-25T02:54:06;105211.03;;;1.89;100.00
64298;BME280;50639;53.270;7.956;2023-01-25T02:56:34;105142.16;;;1.86;100.00
64298;BME280;50639;53.270;7.956;2023-01-25T02:59:00;105152.78;;;1.86;100.00
64298;BME280;50639;53.270;7.956;2023-01-25T03:01:36;105049.47;;;1.82;100.00
64298;BME280;50639;53.270;7.956;2023-01-25T03:04:03;105043.34;;;1.80;100.00
64298;BME280;50639;53.270;7.956;2023-01-25T03:06:30;105005.41;;;1.78;100.00
64298;BME280;50639;53.270;7.956;2023-01-25T03:08:56;105054.84;;;1.80;100.00
64298;BME280;50639;53.270;7.956;2023-01-25T03:11:22;105046.00;;;1.80;100.00
64298;BME280;50639;53.270;7.956;2023-01-25T03:13:49;105023.13;;;1.77;100.00
64298;BME280;50639;53.270;7.956;2023-01-25T03:16:16;104887.19;;;1.70;100.00
64298;BME280;50639;53.270;7.956;2023-01-25T03:18:43;104813.19;;;1.64;100.00
64298;BME280;50639;53.270;7.956;2023-01-25T03:21:11;104781.66;;;1.58;100.00
64298;BME280;50639;53.270;7.956;2023-01-25T03:23:38;104949.28;;;1.66;100.00
64298;BME280;50639;53.270;7.956;2023-01-25T03:26:10;105006.56;;;1.72;100.00
64298;BME280;50639;53.270;7.956;2023-01-25T03:28:40;104743.44;;;1.62;100.00
64298;BME280;50639;53.270;7.956;2023-01-25T03:31:09;104753.34;;;1.59;100.00
64298;BME280;50639;53.270;7.956;2023-01-25T03:33:35;104701.16;;;1.59;100.00
64298;BME280;50639;53.270;7.956;2023-01-25T03:36:01;104747.41;;;1.54;100.00
64298;BME280;50639;53.270;7.956;2023-01-25T03:38:27;105050.72;;;1.73;100.00
64298;BME280;50639;53.270;7.956;2023-01-25T03:40:55;105233.25;;;1.87;100.00
64298;BME280;50639;53.270;7.956;2023-01-25T03:43:22;105280.84;;;1.91;100.00
64298;BME280;50639;53.270;7.956;2023-01-25T03:45:58;105385.81;;;2.00;100.00
64298;BME280;50639;53.270;7.956;2023-01-25T03:48:24;105502.28;;;2.09;100.00
64298;BME280;50639;53.270;7.956;2023-01-25T03:50:53;105413.84;;;2.07;100.00
64298;BME280;50639;53.270;7.956;2023-01-25T03:53:24;105336.97;;;2.04;100.00
64298;BME280;50639;53.270;7.956;2023-01-25T03:56:10;104994.31;;;1.88;100.00
64298;BME280;50639;53.270;7.956;2023-01-25T03:58:38;104907.22;;;1.78;100.00
64298;BME280;50639;53.270;7.956;2023-01-25T04:01:05;104942.50;;;1.80;100.00
64298;BME280;50639;53.270;7.956;2023-01-25T04:03:32;104968.09;;;1.81;100.00
64298;BME280;50639;53.270;7.956;2023-01-25T04:05:59;104806.53;;;1.75;100.00
64298;BME280;50639;53.270;7.956;2023-01-25T04:08:26;104842.84;;;1.74;100.00
64298;BME280;50639;53.270;7.956;2023-01-25T04:10:58;104984.91;;;1.81;100.00
64298;BME280;50639;53.270;7.956;2023-01-25T04:13:25;104913.31;;;1.80;100.00
64298;BME280;50639;53.270;7.956;2023-01-25T04:15:51;104760.00;;;1.67;100.00
64298;BME280;50639;53.270;7.956;2023-01-25T04:18:37;104748.75;;;1.62;100.00
64298;BME280;50639;53.270;7.956;2023-01-25T04:21:03;104912.81;;;1.72;100.00
64298;BME280;50639;53.270;7.956;2023-01-25T04:23:29;104773.34;;;1.66;100.00
64298;BME280;50639;53.270;7.956;2023-01-25T04:25:57;104576.44;;;1.42;100.00
64298;BME280;50639;53.270;7.956;2023-01-25T04:28:23;104650.72;;;1.42;100.00
64298;BME280;50639;53.270;7.956;2023-01-25T04:30:50;104904.44;;;1.62;100.00
64298;BME280;50639;53.270;7.956;2023-01-25T04:33:17;105032.06;;;1.75;100.00
64298;BME280;50639;53.270;7.956;2023-01-25T04:35:43;105035.50;;;1.77;100.00
64298;BME280;50639;53.270;7.956;2023-01-25T04:38:10;105106.00;;;1.84;100.00
64298;BME280;50639;53.270;7.956;2023-01-25T04:40:38;104735.97;;;1.70;100.00
64298;BME280;50639;53.270;7.956;2023-01-25T04:43:04;104860.66;;;1.70;100.00
64298;BME280;50639;53.270;7.956;2023-01-25T04:45:31;104745.94;;;1.65;100.00
64298;BME280;50639;53.270;7.956;2023-01-25T04:48:04;104636.72;;;1.57;100.00
64298;BME280;50639;53.270;7.956;2023-01-25T04:50:31;104443.81;;;1.44;100.00
64298;BME280;50639;53.270;7.956;2023-01-25T04:52:58;104320.41;;;1.21;100.00
64298;BME280;50639;53.270;7.956;2023-01-25T04:55:25;104654.00;;;1.47;100.00
64298;BME280;50639;53.270;7.956;2023-01-25T04:57:53;104737.59;;;1.56;100.00
64298;BME280;50639;53.270;7.956;2023-01-25T05:00:19;104782.53;;;1.59;100.00
64298;BME280;50639;53.270;7.956;2023-01-25T05:02:45;104584.09;;;1.48;100.00
64298;BME280;50639;53.270;7.956;2023-01-25T05:05:11;104623.75;;;1.51;100.00
64298;BME280;50639;53.270;7.956;2023-01-25T05:07:37;104788.69;;;1.59;100.00
64298;BME280;50639;53.270;7.956;2023-01-25T05:10:04;104739.06;;;1.61;100.00
64298;BME280;50639;53.270;7.956;2023-01-25T05:12:30;104763.88;;;1.60;100.00
64298;BME280;50639;53.270;7.956;2023-01-25T05:15:00;104644.88;;;1.53;100.00
64298;BME280;50639;53.270;7.956;2023-01-25T05:17:26;104490.50;;;1.46;100.00
64298;BME280;50639;53.270;7.956;2023-01-25T05:19:51;104603.44;;;1.50;100.00
64298;BME280;50639;53.270;7.956;2023-01-25T05:22:20;104501.97;;;1.47;100.00
64298;BME280;50639;53.270;7.956;2023-01-25T05:24:49;104557.66;;;1.47;100.00
64298;BME280;50639;53.270;7.956;2023-01-25T05:27:17;104640.56;;;1.50;100.00
64298;BME280;50639;53.270;7.956;2023-01-25T05:29:52;104701.38;;;1.55;100.00
64298;BME280;50639;53.270;7.956;2023-01-25T05:32:22;104638.72;;;1.52;100.00
64298;BME280;50639;53.270;7.956;2023-01-25T05:34:48;104700.50;;;1.54;100.00
64298;BME280;50639;53.270;7.956;2023-01-25T05:37:17;104931.50;;;1.68;100.00
64298;BME280;50639;53.270;7.956;2023-01-25T05:39:45;105001.97;;;1.76;100.00
64298;BME280;50639;53.270;7.956;2023-01-25T05:42:13;104904.78;;;1.73;100.00
64298;BME280;50639;53.270;7.956;2023-01-25T05:44:39;104884.50;;;1.72;100.00
64298;BME280;50639;53.270;7.956;2023-01-25T05:47:06;104735.03;;;1.72;100.00
64298;BME280;50639;53.270;7.956;2023-01-25T05:49:31;104566.66;;;1.61;100.00
64298;BME280;50639;53.270;7.956;2023-01-25T05:51:57;104605.78;;;1.56;100.00
64298;BME280;50639;53.270;7.956;2023-01-25T05:54:23;104687.81;;;1.61;100.00
64298;BME280;50639;53.270;7.956;2023-01-25T05:56:57;104841.25;;;1.70;100.00
64298;BME280;50639;53.270;7.956;2023-01-25T05:59:23;105019.31;;;1.83;100.00
64298;BME280;50639;53.270;7.956;2023-01-25T06:01:49;105039.56;;;1.85;100.00
64298;BME280;50639;53.270;7.956;2023-01-25T06:04:15;104729.56;;;1.75;100.00
64298;BME280;50639;53.270;7.956;2023-01-25T06:06:41;104707.06;;;1.64;100.00
64298;BME280;50639;53.270;7.956;2023-01-25T06:09:08;104611.75;;;1.61;100.00
64298;BME280;50639;53.270;7.956;2023-01-25T06:11:34;104515.88;;;1.52;100.00
64298;BME280;50639;53.270;7.956;2023-01-25T06:14:00;104539.97;;;1.47;100.00
64298;BME280;50639;53.270;7.956;2023-01-25T06:16:25;104677.50;;;1.55;100.00
64298;BME280;50639;53.270;7.956;2023-01-25T06:18:57;104509.84;;;1.48;100.00
64298;BME280;50639;53.270;7.956;2023-01-25T06:21:34;104579.84;;;1.46;100.00
64298;BME280;50639;53.270;7.956;2023-01-25T06:24:02;104589.56;;;1.45;100.00
64298;BME280;50639;53.270;7.956;2023-01-25T06:26:28;104509.31;;;1.42;100.00
64298;BME280;50639;53.270;7.956;2023-01-25T06:28:53;104766.69;;;1.57;100.00
64298;BME280;50639;53.270;7.956;2023-01-25T06:31:18;104461.31;;;1.46;100.00
64298;BME280;50639;53.270;7.956;2023-01-25T06:33:48;104781.53;;;1.61;100.00
64298;BME280;50639;53.270;7.956;2023-01-25T06:36:16;104697.56;;;1.60;100.00
64298;BME280;50639;53.270;7.956;2023-01-25T06:38:46;104580.22;;;1.55;100.00
64298;BME280;50639;53.270;7.956;2023-01-25T06:41:13;104557.44;;;1.51;100.00
64298;BME280;50639;53.270;7.956;2023-01-25T06:43:38;104605.00;;;1.54;100.00
64298;BME280;50639;53.270;7.956;2023-01-25T06:46:07;104515.31;;;1.45;100.00
64298;BME280;50639;53.270;7.956;2023-01-25T06:48:33;104599.19;;;1.48;100.00
64298;BME280;50639;53.270;7.956;2023-01-25T06:51:04;104473.13;;;1.41;100.00
64298;BME280;50639;53.270;7.956;2023-01-25T06:53:32;104583.41;;;1.45;100.00
64298;BME280;50639;53.270;7.956;2023-01-25T06:56:00;104675.16;;;1.49;100.00
64298;BME280;50639;53.270;7.956;2023-01-25T06:58:27;104488.13;;;1.42;100.00
64298;BME280;50639;53.270;7.956;2023-01-25T07:00:53;104376.53;;;1.29;100.00
64298;BME280;50639;53.270;7.956;2023-01-25T07:03:18;104363.88;;;1.34;100.00
64298;BME280;50639;53.270;7.956;2023-01-25T07:05:44;104283.78;;;1.28;100.00
64298;BME280;50639;53.270;7.956;2023-01-25T07:08:10;104141.84;;;1.07;100.00
64298;BME280;50639;53.270;7.956;2023-01-25T07:10:36;104339.09;;;1.18;100.00
64298;BME280;50639;53.270;7.956;2023-01-25T07:13:01;104517.81;;;1.31;100.00
64298;BME280;50639;53.270;7.956;2023-01-25T07:15:27;104492.22;;;1.30;100.00
64298;BME280;50639;53.270;7.956;2023-01-25T07:17:52;104604.94;;;1.39;100.00
64298;BME280;50639;53.270;7.956;2023-01-25T07:20:18;104601.28;;;1.41;100.00
64298;BME280;50639;53.270;7.956;2023-01-25T07:22:43;104503.28;;;1.38;100.00
64298;BME280;50639;53.270;7.956;2023-01-25T07:25:09;104552.75;;;1.39;100.00
64298;BME280;50639;53.270;7.956;2023-01-25T07:27:34;104448.72;;;1.34;100.00
64298;BME280;50639;53.270;7.956;2023-01-25T07:30:00;104420.63;;;1.30;100.00
64298;BME280;50639;53.270;7.956;2023-01-25T07:32:25;104512.34;;;1.34;100.00
64298;BME280;50639;53.270;7.956;2023-01-25T07:34:51;104555.53;;;1.36;100.00
64298;BME280;50639;53.270;7.956;2023-01-25T07:37:17;104648.06;;;1.42;100.00
64298;BME280;50639;53.270;7.956;2023-01-25T07:39:42;104645.28;;;1.45;100.00
64298;BME280;50639;53.270;7.956;2023-01-25T07:42:13;104708.75;;;1.48;100.00
64298;BME280;50639;53.270;7.956;2023-01-25T07:44:48;104752.72;;;1.54;100.00
64298;BME280;50639;53.270;7.956;2023-01-25T07:47:13;104794.00;;;1.59;100.00
64298;BME280;50639;53.270;7.956;2023-01-25T07:49:39;104738.38;;;1.58;100.00
64298;BME280;50639;53.270;7.956;2023-01-25T07:52:05;104680.06;;;1.56;100.00
64298;BME280;50639;53.270;7.956;2023-01-25T07:54:30;104523.88;;;1.50;100.00
64298;BME280;50639;53.270;7.956;2023-01-25T07:56:55;104382.50;;;1.33;100.00
64298;BME280;50639;53.270;7.956;2023-01-25T07:59:23;104495.34;;;1.38;100.00
64298;BME280;50639;53.270;7.956;2023-01-25T08:01:49;104438.88;;;1.36;100.00
64298;BME280;50639;53.270;7.956;2023-01-25T08:04:14;104334.09;;;1.29;100.00
64298;BME280;50639;53.270;7.956;2023-01-25T08:06:41;104343.84;;;1.29;100.00
64298;BME280;50639;53.270;7.956;2023-01-25T08:09:10;104253.38;;;1.19;100.00
64298;BME280;50639;53.270;7.956;2023-01-25T08:11:36;104311.69;;;1.19;100.00
64298;BME280;50639;53.270;7.956;2023-01-25T08:14:02;104301.06;;;1.19;100.00
64298;BME280;50639;53.270;7.956;2023-01-25T08:16:29;104380.28;;;1.25;100.00
64298;BME280;50639;53.270;7.956;2023-01-25T08:18:56;104453.31;;;1.31;100.00
64298;BME280;50639;53.270;7.956;2023-01-25T08:21:23;104373.00;;;1.29;100.00
64298;BME280;50639;53.270;7.956;2023-01-25T08:23:50;104506.13;;;1.35;100.00
64298;BME280;50639;53.270;7.956;2023-01-25T08:26:15;104380.81;;;1.32;100.00
64298;BME280;50639;53.270;7.956;2023-01-25T08:28:42;104613.53;;;1.44;100.00
64298;BME280;50639;53.270;7.956;2023-01-25T08:33:37;104203.16;;;1.16;100.00
64298;BME280;50639;53.270;7.956;2023-01-25T08:36:03;104345.19;;;1.20;100.00
64298;BME280;50639;53.270;7.956;2023-01-25T08:38:30;104557.28;;;1.37;100.00
64298;BME280;50639;53.270;7.956;2023-01-25T08:41:04;104582.72;;;1.41;100.00
64298;BME280;50639;53.270;7.956;2023-01-25T08:43:29;104350.78;;;1.31;100.00
64298;BME280;50639;53.270;7.956;2023-01-25T08:45:55;104444.28;;;1.35;100.00
64298;BME280;50639;53.270;7.956;2023-01-25T08:48:21;104470.78;;;1.35;100.00
64298;BME280;50639;53.270;7.956;2023-01-25T08:50:47;104474.22;;;1.37;100.00
64298;BME280;50639;53.270;7.956;2023-01-25T08:53:12;104423.94;;;1.35;100.00
64298;BME280;50639;53.270;7.956;2023-01-25T08:55:38;104519.16;;;1.40;100.00
64298;BME280;50639;53.270;7.956;2023-01-25T08:58:06;104439.66;;;1.38;100.00
64298;BME280;50639;53.270;7.956;2023-01-25T09:00:39;104337.34;;;1.34;100.00
64298;BME280;50639;53.270;7.956;2023-01-25T09:03:05;104564.94;;;1.43;100.00
64298;BME280;50639;53.270;7.956;2023-01-25T09:05:35;104577.97;;;1.48;100.00
64298;BME280;50639;53.270;7.956;2023-01-25T09:08:01;104311.88;;;1.32;100.00
64298;BME280;50639;53.270;7.956;2023-01-25T09:10:27;104285.84;;;1.23;100.00
64298;BME280;50639;53.270;7.956;2023-01-25T09:12:53;104336.31;;;1.21;100.00
64298;BME280;50639;53.270;7.956;2023-01-25T09:15:18;104284.22;;;1.20;100.00
64298;BME280;50639;53.270;7.956;2023-01-25T09:17:44;104225.66;;;1.09;100.00
64298;BME280;50639;53.270;7.956;2023-01-25T09:20:09;104163.41;;;1.01;100.00
64298;BME280;50639;53.270;7.956;2023-01-25T09:22:35;104156.38;;;1.00;100.00
64298;BME280;50639;53.270;7.956;2023-01-25T09:25:01;104137.91;;;0.98;100.00
64298;BME280;50639;53.270;7.956;2023-01-25T09:27:27;104384.47;;;1.12;100.00
64298;BME280;50639;53.270;7.956;2023-01-25T09:29:52;104373.75;;;1.15;100.00
64298;BME280;50639;53.270;7.956;2023-01-25T09:32:17;104380.75;;;1.16;100.00
64298;BME280;50639;53.270;7.956;2023-01-25T09:34:52;104239.81;;;1.08;100.00
64298;BME280;50639;53.270;7.956;2023-01-25T09:37:18;104359.63;;;1.15;100.00
64298;BME280;50639;53.270;7.956;2023-01-25T09:39:43;104230.09;;;1.09;100.00
64298;BME280;50639;53.270;7.956;2023-01-25T09:42:16;104110.41;;;1.01;100.00
64298;BME280;50639;53.270;7.956;2023-01-25T09:45:15;104498.00;;;1.21;100.00
64298;BME280;50639;53.270;7.956;2023-01-25T09:47:55;104719.63;;;1.44;100.00
64298;BME280;50639;53.270;7.956;2023-01-25T09:50:39;104575.66;;;1.40;100.00
64298;BME280;50639;53.270;7.956;2023-01-25T09:53:19;104529.03;;;1.36;100.00
64298;BME280;50639;53.270;7.956;2023-01-25T09:55:58;104563.38;;;1.39;100.00
64298;BME280;50639;53.270;7.956;2023-01-25T09:58:29;104559.94;;;1.37;100.00
64298;BME280;50639;53.270;7.956;2023-01-25T10:01:08;104631.31;;;1.42;100.00
64298;BME280;50639;53.270;7.956;2023-01-25T10:03:49;104454.97;;;1.33;100.00
64298;BME280;50639;53.270;7.956;2023-01-25T10:06:19;104601.28;;;1.41;100.00
64298;BME280;50639;53.270;7.956;2023-01-25T10:08:59;104449.75;;;1.32;100.00
64298;BME280;50639;53.270;7.956;2023-01-25T10:11:31;104550.19;;;1.38;100.00
64298;BME280;50639;53.270;7.956;2023-01-25T10:13:57;104612.66;;;1.43;100.00
64298;BME280;50639;53.270;7.956;2023-01-25T10:16:45;104311.16;;;1.28;100.00
64298;BME280;50639;53.270;7.956;2023-01-25T10:21:53;104463.59;;;1.37;100.00
64298;BME280;50639;53.270;7.956;2023-01-25T10:30:36;104361.63;;;1.27;100.00
64298;BME280;50639;53.270;7.956;2023-01-25T10:33:12;104321.19;;;1.23;100.00
64298;BME280;50639;53.270;7.956;2023-01-25T10:35:43;104602.13;;;1.42;100.00
64298;BME280;50639;53.270;7.956;2023-01-25T10:38:31;104782.69;;;1.56;100.00
64298;BME280;50639;53.270;7.956;2023-01-25T10:41:03;104546.13;;;1.48;100.00
64298;BME280;50639;53.270;7.956;2023-01-25T10:43:31;104717.28;;;1.55;100.00
64298;BME280;50639;53.270;7.956;2023-01-25T10:45:57;104529.34;;;1.47;100.00
64298;BME280;50639;53.270;7.956;2023-01-25T10:48:26;104194.84;;;1.22;100.00
64298;BME280;50639;53.270;7.956;2023-01-25T10:50:54;104378.22;;;1.30;100.00
64298;BME280;50639;53.270;7.956;2023-01-25T10:53:31;104515.56;;;1.41;100.00
64298;BME280;50639;53.270;7.956;2023-01-25T10:58:40;104590.34;;;1.47;100.00
64298;BME280;50639;53.270;7.956;2023-01-25T11:01:09;104645.75;;;1.53;100.00
64298;BME280;50639;53.270;7.956;2023-01-25T11:06:03;104718.00;;;1.58;100.00
64298;BME280;50639;53.270;7.956;2023-01-25T11:10:57;104454.25;;;1.47;100.00
64298;BME280;50639;53.270;7.956;2023-01-25T11:13:25;104427.19;;;1.40;100.00
64298;BME280;50639;53.270;7.956;2023-01-25T11:18:27;104266.34;;;1.24;100.00
64298;BME280;50639;53.270;7.956;2023-01-25T11:21:15;104324.59;;;1.25;100.00
64298;BME280;50639;53.270;7.956;2023-01-25T11:24:00;104381.81;;;1.29;100.00
64298;BME280;50639;53.270;7.956;2023-01-25T11:26:27;104251.38;;;1.23;100.00
64298;BME280;50639;53.270;7.956;2023-01-25T11:29:18;104221.28;;;1.24;100.00
64298;BME280;50639;53.270;7.956;2023-01-25T11:31:52;104114.81;;;1.16;100.00
64298;BME280;50639;53.270;7.956;2023-01-25T11:34:21;104481.31;;;1.36;100.00
64298;BME280;50639;53.270;7.956;2023-01-25T11:39:48;104452.84;;;1.40;100.00
64298;BME280;50639;53.270;7.956;2023-01-25T11:51:00;104614.63;;;1.57;100.00
64298;BME280;50639;53.270;7.956;2023-01-25T11:53:55;104671.09;;;1.59;100.00
64298;BME280;50639;53.270;7.956;2023-01-25T11:59:04;104601.81;;;1.65;100.00
64298;BME280;50639;53.270;7.956;2023-01-25T12:04:55;104515.47;;;1.59;100.00
64298;BME280;50639;53.270;7.956;2023-01-25T12:07:31;104466.16;;;1.55;100.00
64298;BME280;50639;53.270;7.956;2023-01-25T12:10:03;104520.91;;;1.56;100.00
64298;BME280;50639;53.270;7.956;2023-01-25T12:12:58;104438.88;;;1.53;100.00
64298;BME280;50639;53.270;7.956;2023-01-25T12:29:35;104209.41;;;1.31;100.00
64298;BME280;50639;53.270;7.956;2023-01-25T12:32:29;104239.25;;;1.34;100.00
64298;BME280;50639;53.270;7.956;2023-01-25T12:35:11;104178.63;;;1.28;100.00
64298;BME280;50639;53.270;7.956;2023-01-25T12:37:38;104200.78;;;1.27;100.00
64298;BME280;50639;53.270;7.956;2023-01-25T12:40:16;104114.47;;;1.22;100.00
64298;BME280;50639;53.270;7.956;2023-01-25T12:42:46;104243.97;;;1.29;100.00
64298;BME280;50639;53.270;7.956;2023-01-25T12:45:19;104243.97;;;1.29;100.00
64298;BME280;50639;53.270;7.956;2023-01-25T12:48:13;104347.97;;;1.34;100.00
64298;BME280;50639;53.270;7.956;2023-01-25T12:50:46;104280.91;;;1.32;100.00
64298;BME280;50639;53.270;7.956;2023-01-25T12:55:43;104354.91;;;1.37;100.00
64298;BME280;50639;53.270;7.956;2023-01-25T12:58:31;104352.25;;;1.37;100.00
64298;BME280;50639;53.270;7.956;2023-01-25T13:01:21;104222.56;;;1.32;100.00
64298;BME280;50639;53.270;7.956;2023-01-25T13:04:09;104301.97;;;1.35;100.00
64298;BME280;50639;53.270;7.956;2023-01-25T13:09:29;104114.47;;;1.22;100.00
64298;BME280;50639;53.270;7.956;2023-01-25T13:11:57;104079.44;;;1.17;100.00
64298;BME280;50639;53.270;7.956;2023-01-25T13:14:28;104009.88;;;1.13;100.00
64298;BME280;50639;53.270;7.956;2023-01-25T13:22:01;104171.00;;;1.22;100.00
64298;BME280;50639;53.270;7.956;2023-01-25T13:24:27;104272.16;;;1.30;100.00
64298;BME280;50639;53.270;7.956;2023-01-25T13:31:57;104258.84;;;1.32;100.00
64298;BME280;50639;53.270;7.956;2023-01-25T13:37:16;104263.88;;;1.36;100.00
64298;BME280;50639;53.270;7.956;2023-01-25T13:40:03;104146.66;;;1.31;100.00
64298;BME280;50639;53.270;7.956;2023-01-25T13:42:31;104066.59;;;1.25;100.00
64298;BME280;50639;53.270;7.956;2023-01-25T13:44:58;104071.03;;;1.24;100.00
64298;BME280;50639;53.270;7.956;2023-01-25T13:47:36;104204.97;;;1.31;100.00
64298;BME280;50639;53.270;7.956;2023-01-25T13:50:17;104340.53;;;1.41;100.00
64298;BME280;50639;53.270;7.956;2023-01-25T13:55:24;104104.22;;;1.31;100.00
64298;BME280;50639;53.270;7.956;2023-01-25T13:57:49;104063.69;;;1.29;100.00
64298;BME280;50639;53.270;7.956;2023-01-25T14:00:16;103981.03;;;1.23;100.00
64298;BME280;50639;53.270;7.956;2023-01-25T14:02:44;103989.84;;;1.23;100.00
64298;BME280;50639;53.270;7.956;2023-01-25T14:05:22;104084.03;;;1.29;100.00
64298;BME280;50639;53.270;7.956;2023-01-25T14:07:50;104170.31;;;1.34;100.00
64298;BME280;50639;53.270;7.956;2023-01-25T14:10:20;103926.22;;;1.23;100.00
64298;BME280;50639;53.270;7.956;2023-01-25T14:12:49;103988.97;;;1.23;100.00
64298;BME280;50639;53.270;7.956;2023-01-25T14:15:30;103887.25;;;1.10;100.00
64298;BME280;50639;53.270;7.956;2023-01-25T14:18:16;103821.31;;;1.05;100.00
64298;BME280;50639;53.270;7.956;2023-01-25T14:20:47;103827.53;;;1.04;100.00
64298;BME280;50639;53.270;7.956;2023-01-25T14:23:20;103811.09;;;0.99;100.00
64298;BME280;50639;53.270;7.956;2023-01-25T14:25:46;103887.63;;;1.04;100.00
64298;BME280;50639;53.270;7.956;2023-01-25T14:28:13;103786.28;;;1.00;100.00